createdAt,value
2016-10-27T00:00:07.623Z,968.11
2016-10-27T00:01:08.248Z,968.11
2016-10-27T00:02:08.388Z,968.09
2016-10-27T00:03:07.960Z,968.10
2016-10-27T00:04:07.602Z,968.07
2016-10-27T00:05:08.085Z,968.04
2016-10-27T00:06:07.728Z,968.03
2016-10-27T00:07:08.431Z,968.04
2016-10-27T00:08:08.031Z,968.09
2016-10-27T00:09:07.877Z,968.10
2016-10-27T00:10:07.455Z,968.15
2016-10-27T00:11:08.145Z,968.18
2016-10-27T00:12:08.036Z,968.19
2016-10-27T00:13:07.733Z,968.23
2016-10-27T00:14:08.766Z,968.22
2016-10-27T00:15:07.372Z,968.24
2016-10-27T00:16:08.078Z,968.21
2016-10-27T00:17:07.911Z,968.18
2016-10-27T00:18:07.476Z,968.24
2016-10-27T00:19:08.125Z,968.24
2016-10-27T00:20:08.756Z,968.29
2016-10-27T00:21:07.320Z,968.30
2016-10-27T00:22:08.019Z,968.30
2016-10-27T00:23:07.686Z,968.35
2016-10-27T00:24:08.282Z,968.31
2016-10-27T00:25:07.887Z,968.28
2016-10-27T00:26:08.098Z,968.32
2016-10-27T00:27:07.943Z,968.35
2016-10-27T00:28:07.517Z,968.32
2016-10-27T00:29:08.049Z,968.32
2016-10-27T00:30:07.539Z,968.24
2016-10-27T00:31:08.009Z,968.27
2016-10-27T00:32:07.597Z,968.27
2016-10-27T00:33:08.236Z,968.25
2016-10-27T00:34:07.830Z,968.22
2016-10-27T00:35:07.464Z,968.22
2016-10-27T00:36:08.092Z,968.23
2016-10-27T00:37:08.481Z,968.22
2016-10-27T00:38:08.174Z,968.26
2016-10-27T00:39:08.047Z,968.29
2016-10-27T00:40:07.656Z,968.31
2016-10-27T00:41:08.308Z,968.35
2016-10-27T00:42:08.029Z,968.38
2016-10-27T00:43:07.763Z,968.41
2016-10-27T00:44:07.348Z,968.41
2016-10-27T00:45:07.679Z,968.46
2016-10-27T00:46:08.385Z,968.45
2016-10-27T00:47:08.253Z,968.48
2016-10-27T00:48:07.917Z,968.45
2016-10-27T00:49:07.655Z,968.46
2016-10-27T00:50:08.305Z,968.45
2016-10-27T00:51:07.966Z,968.43
2016-10-27T00:52:07.552Z,968.47
2016-10-27T00:53:08.184Z,968.43
2016-10-27T00:54:07.683Z,968.45
2016-10-27T00:55:08.322Z,968.48
2016-10-27T00:56:07.966Z,968.46
2016-10-27T00:57:07.691Z,968.50
2016-10-27T00:58:08.456Z,968.46
2016-10-27T00:59:08.080Z,968.50
2016-10-27T01:00:07.709Z,968.43
2016-10-27T01:01:08.419Z,968.50
2016-10-27T01:02:07.956Z,968.47
2016-10-27T01:03:07.484Z,968.44
2016-10-27T01:04:08.071Z,968.45
2016-10-27T01:05:07.652Z,968.48
2016-10-27T01:06:09.159Z,968.46
2016-10-27T01:07:07.881Z,968.51
2016-10-27T01:08:09.384Z,968.49
2016-10-27T01:09:08.222Z,968.49
2016-10-27T01:10:07.893Z,968.47
2016-10-27T01:11:07.633Z,968.46
2016-10-27T01:12:08.357Z,968.44
2016-10-27T01:13:07.912Z,968.42
2016-10-27T01:14:07.552Z,968.38
2016-10-27T01:15:08.152Z,968.39
2016-10-27T01:16:07.757Z,968.38
2016-10-27T01:17:07.539Z,968.32
2016-10-27T01:18:08.128Z,968.38
2016-10-27T01:19:07.731Z,968.36
2016-10-27T01:20:08.408Z,968.42
2016-10-27T01:21:07.842Z,968.39
2016-10-27T01:22:07.516Z,968.39
2016-10-27T01:23:08.187Z,968.37
2016-10-27T01:24:07.690Z,968.35
2016-10-27T01:25:08.001Z,968.37
2016-10-27T01:26:07.640Z,968.39
2016-10-27T01:27:08.249Z,968.37
2016-10-27T01:28:07.886Z,968.34
2016-10-27T01:29:15.455Z,968.36
2016-10-27T01:30:08.130Z,968.39
2016-10-27T01:31:07.688Z,968.38
2016-10-27T01:32:08.268Z,968.46
2016-10-27T01:33:07.876Z,968.45
2016-10-27T01:34:07.466Z,968.47
2016-10-27T01:35:08.142Z,968.48
2016-10-27T01:36:07.886Z,968.44
2016-10-27T01:37:07.474Z,968.45
2016-10-27T01:38:08.141Z,968.45
2016-10-27T01:39:07.746Z,968.42
2016-10-27T01:40:08.429Z,968.45
2016-10-27T01:41:07.978Z,968.47
2016-10-27T01:42:07.525Z,968.44
2016-10-27T01:43:08.144Z,968.40
2016-10-27T01:44:07.768Z,968.43
2016-10-27T01:45:07.281Z,968.47
2016-10-27T01:46:07.933Z,968.44
2016-10-27T01:47:07.480Z,968.44
2016-10-27T01:48:08.192Z,968.44
2016-10-27T01:49:07.925Z,968.48
2016-10-27T01:50:07.523Z,968.48
2016-10-27T01:51:08.182Z,968.42
2016-10-27T01:52:07.653Z,968.41
2016-10-27T01:53:07.445Z,968.40
2016-10-27T01:54:08.152Z,968.44
2016-10-27T01:55:07.719Z,968.41
2016-10-27T01:56:08.354Z,968.37
2016-10-27T01:57:08.099Z,968.41
2016-10-27T01:58:07.741Z,968.39
2016-10-27T01:59:08.483Z,968.43
2016-10-27T02:00:07.989Z,968.48
2016-10-27T02:01:07.564Z,968.47
2016-10-27T02:02:08.122Z,968.47
2016-10-27T02:03:07.594Z,968.46
2016-10-27T02:04:08.248Z,968.48
2016-10-27T02:05:08.135Z,968.45
2016-10-27T02:06:07.700Z,968.42
2016-10-27T02:07:08.634Z,968.40
2016-10-27T02:08:08.356Z,968.44
2016-10-27T02:09:08.045Z,968.43
2016-10-27T02:10:07.655Z,968.44
2016-10-27T02:11:08.301Z,968.39
2016-10-27T02:12:08.020Z,968.38
2016-10-27T02:13:07.715Z,968.39
2016-10-27T02:14:07.247Z,968.36
2016-10-27T02:15:07.911Z,968.35
2016-10-27T02:16:07.481Z,968.34
2016-10-27T02:17:08.136Z,968.35
2016-10-27T02:18:07.817Z,968.28
2016-10-27T02:19:07.435Z,968.29
2016-10-27T02:20:08.014Z,968.33
2016-10-27T02:21:07.601Z,968.34
2016-10-27T02:22:08.205Z,968.39
2016-10-27T02:23:07.793Z,968.37
2016-10-27T02:24:07.517Z,968.37
2016-10-27T02:25:08.160Z,968.40
2016-10-27T02:26:07.719Z,968.41
2016-10-27T02:27:07.310Z,968.42
2016-10-27T02:28:07.817Z,968.42
2016-10-27T02:29:07.306Z,968.36
2016-10-27T02:30:07.825Z,968.37
2016-10-27T02:31:07.411Z,968.35
2016-10-27T02:32:07.972Z,968.37
2016-10-27T02:33:07.588Z,968.36
2016-10-27T02:34:08.247Z,968.34
2016-10-27T02:35:07.978Z,968.38
2016-10-27T02:36:07.511Z,968.38
2016-10-27T02:37:08.003Z,968.38
2016-10-27T02:38:07.494Z,968.36
2016-10-27T02:39:08.103Z,968.43
2016-10-27T02:40:07.702Z,968.41
2016-10-27T02:41:08.289Z,968.46
2016-10-27T02:42:08.166Z,968.41
2016-10-27T02:43:07.802Z,968.49
2016-10-27T02:44:07.324Z,968.47
2016-10-27T02:45:08.020Z,968.44
2016-10-27T02:46:07.465Z,968.47
2016-10-27T02:47:08.205Z,968.42
2016-10-27T02:48:07.868Z,968.37
2016-10-27T02:49:07.666Z,968.40
2016-10-27T02:50:08.317Z,968.43
2016-10-27T02:51:07.942Z,968.44
2016-10-27T02:52:07.720Z,968.42
2016-10-27T02:53:08.292Z,968.39
2016-10-27T02:54:14.547Z,968.40
2016-10-27T02:55:15.742Z,968.39
2016-10-27T02:56:07.517Z,968.39
2016-10-27T02:57:08.206Z,968.38
2016-10-27T02:58:07.695Z,968.37
2016-10-27T02:59:08.112Z,968.36
2016-10-27T03:00:07.618Z,968.36
2016-10-27T03:01:08.342Z,968.39
2016-10-27T03:02:08.028Z,968.37
2016-10-27T03:03:07.773Z,968.42
2016-10-27T03:04:07.367Z,968.44
2016-10-27T03:05:08.112Z,968.46
2016-10-27T03:06:07.716Z,968.38
2016-10-27T03:07:08.389Z,968.37
2016-10-27T03:08:07.912Z,968.41
2016-10-27T03:09:07.472Z,968.43
2016-10-27T03:10:08.102Z,968.40
2016-10-27T03:11:07.657Z,968.39
2016-10-27T03:12:08.097Z,968.48
2016-10-27T03:13:07.712Z,968.48
2016-10-27T03:14:08.238Z,968.45
2016-10-27T03:15:07.879Z,968.45
2016-10-27T03:16:07.588Z,968.49
2016-10-27T03:17:08.268Z,968.52
2016-10-27T03:18:07.771Z,968.51
2016-10-27T03:19:07.275Z,968.54
2016-10-27T03:20:07.824Z,968.52
2016-10-27T03:21:07.573Z,968.53
2016-10-27T03:22:08.190Z,968.56
2016-10-27T03:23:07.827Z,968.65
2016-10-27T03:24:07.558Z,968.62
2016-10-27T03:25:08.079Z,968.64
2016-10-27T03:26:08.107Z,968.65
2016-10-27T03:27:07.551Z,968.65
2016-10-27T03:28:08.123Z,968.65
2016-10-27T03:29:07.629Z,968.65
2016-10-27T03:30:08.254Z,968.65
2016-10-27T03:31:07.793Z,968.66
2016-10-27T03:32:07.615Z,968.66
2016-10-27T03:33:07.350Z,968.67
2016-10-27T03:34:07.994Z,968.68
2016-10-27T03:35:07.687Z,968.67
2016-10-27T03:36:08.385Z,968.72
2016-10-27T03:37:08.130Z,968.72
2016-10-27T03:38:07.618Z,968.79
2016-10-27T03:39:08.195Z,968.79
2016-10-27T03:40:08.304Z,968.78
2016-10-27T03:41:08.014Z,968.78
2016-10-27T03:42:07.772Z,968.79
2016-10-27T03:43:07.373Z,968.81
2016-10-27T03:44:07.936Z,968.80
2016-10-27T03:45:07.621Z,968.80
2016-10-27T03:46:08.205Z,968.81
2016-10-27T03:47:07.744Z,968.82
2016-10-27T03:48:08.235Z,968.81
2016-10-27T03:49:07.803Z,968.82
2016-10-27T03:50:07.377Z,968.76
2016-10-27T03:51:07.959Z,968.80
2016-10-27T03:52:07.830Z,968.82
2016-10-27T03:53:07.566Z,968.83
2016-10-27T03:54:08.151Z,968.86
2016-10-27T03:55:07.784Z,968.85
2016-10-27T03:56:07.423Z,968.87
2016-10-27T03:57:07.984Z,968.89
2016-10-27T03:58:07.592Z,968.85
2016-10-27T03:59:08.156Z,968.88
2016-10-27T04:00:07.661Z,968.87
2016-10-27T04:01:08.222Z,968.84
2016-10-27T04:03:07.334Z,968.81
2016-10-27T04:04:13.306Z,968.84
2016-10-27T04:05:08.137Z,968.80
2016-10-27T04:06:07.869Z,968.78
2016-10-27T04:07:08.228Z,968.76
2016-10-27T04:08:07.882Z,968.75
2016-10-27T04:09:07.594Z,968.76
2016-10-27T04:10:08.257Z,968.72
2016-10-27T04:11:07.806Z,968.74
2016-10-27T04:12:07.412Z,968.74
2016-10-27T04:13:08.113Z,968.74
2016-10-27T04:14:13.854Z,968.76
2016-10-27T04:15:07.608Z,968.75
2016-10-27T04:16:08.265Z,968.74
2016-10-27T04:17:08.841Z,968.77
2016-10-27T04:18:07.611Z,968.75
2016-10-27T04:19:08.342Z,968.73
2016-10-27T04:20:07.984Z,968.68
2016-10-27T04:21:07.509Z,968.74
2016-10-27T04:22:07.814Z,968.67
2016-10-27T04:23:07.423Z,968.71
2016-10-27T04:24:08.936Z,968.76
2016-10-27T04:25:10.305Z,968.84
2016-10-27T04:26:08.086Z,968.85
2016-10-27T04:27:07.664Z,968.91
2016-10-27T04:28:08.255Z,968.95
2016-10-27T04:29:07.845Z,968.92
2016-10-27T04:30:07.409Z,968.91
2016-10-27T04:31:08.109Z,968.88
2016-10-27T04:32:07.735Z,968.97
2016-10-27T04:33:07.329Z,968.98
2016-10-27T04:34:07.925Z,969.01
2016-10-27T04:35:07.427Z,969.01
2016-10-27T04:36:08.097Z,968.96
2016-10-27T04:37:07.677Z,968.94
2016-10-27T04:38:08.400Z,968.96
2016-10-27T04:39:07.994Z,968.99
2016-10-27T04:40:07.589Z,969.00
2016-10-27T04:41:08.227Z,969.02
2016-10-27T04:42:07.835Z,969.04
2016-10-27T04:43:07.514Z,969.11
2016-10-27T04:44:08.060Z,969.08
2016-10-27T04:45:07.661Z,969.11
2016-10-27T04:46:08.238Z,969.12
2016-10-27T04:47:07.778Z,969.15
2016-10-27T04:48:07.389Z,969.20
2016-10-27T04:49:08.415Z,969.17
2016-10-27T04:50:08.140Z,969.11
2016-10-27T04:51:07.716Z,969.15
2016-10-27T04:52:08.276Z,969.15
2016-10-27T04:53:07.891Z,969.15
2016-10-27T04:54:07.633Z,969.21
2016-10-27T04:55:08.314Z,969.22
2016-10-27T04:56:07.972Z,969.27
2016-10-27T04:57:07.437Z,969.29
2016-10-27T04:58:07.977Z,969.23
2016-10-27T04:59:07.713Z,969.25
2016-10-27T05:00:08.270Z,969.27
2016-10-27T05:01:07.914Z,969.24
2016-10-27T05:02:08.543Z,969.26
2016-10-27T05:03:08.210Z,969.25
2016-10-27T05:04:07.886Z,969.25
2016-10-27T05:05:07.434Z,969.25
2016-10-27T05:06:08.097Z,969.28
2016-10-27T05:07:07.580Z,969.23
2016-10-27T05:08:08.081Z,969.27
2016-10-27T05:09:07.728Z,969.25
2016-10-27T05:10:08.242Z,969.18
2016-10-27T05:11:07.758Z,969.15
2016-10-27T05:12:07.376Z,969.17
2016-10-27T05:13:25.530Z,969.16
2016-10-27T05:14:07.429Z,969.14
2016-10-27T05:15:08.570Z,969.15
2016-10-27T05:16:09.702Z,969.20
2016-10-27T05:17:09.388Z,969.22
2016-10-27T05:18:08.158Z,969.24
2016-10-27T05:19:07.740Z,969.23
2016-10-27T05:20:14.795Z,969.22
2016-10-27T05:21:07.392Z,969.17
2016-10-27T05:22:08.017Z,969.22
2016-10-27T05:23:07.721Z,969.19
2016-10-27T05:24:07.432Z,969.21
2016-10-27T05:25:08.119Z,969.26
2016-10-27T05:26:07.396Z,969.27
2016-10-27T05:27:08.269Z,969.30
2016-10-27T05:28:07.955Z,969.32
2016-10-27T05:29:07.597Z,969.36
2016-10-27T05:30:08.850Z,969.34
2016-10-27T05:31:07.506Z,969.34
2016-10-27T05:32:08.156Z,969.30
2016-10-27T05:33:07.801Z,969.38
2016-10-27T05:34:07.413Z,969.36
2016-10-27T05:35:07.979Z,969.38
2016-10-27T05:36:07.604Z,969.41
2016-10-27T05:37:08.177Z,969.44
2016-10-27T05:38:07.654Z,969.41
2016-10-27T05:39:08.217Z,969.47
2016-10-27T05:40:07.838Z,969.45
2016-10-27T05:41:07.353Z,969.49
2016-10-27T05:42:07.969Z,969.49
2016-10-27T05:43:07.496Z,969.52
2016-10-27T05:44:08.017Z,969.53
2016-10-27T05:45:09.424Z,969.54
2016-10-27T05:46:07.579Z,969.57
2016-10-27T05:47:08.231Z,969.56
2016-10-27T05:48:07.874Z,969.59
2016-10-27T05:49:07.539Z,969.60
2016-10-27T05:50:08.202Z,969.64
2016-10-27T05:51:08.085Z,969.65
2016-10-27T05:52:07.815Z,969.69
2016-10-27T05:53:07.441Z,969.67
2016-10-27T05:54:08.017Z,969.68
2016-10-27T05:55:07.668Z,969.69
2016-10-27T05:56:08.369Z,969.74
2016-10-27T05:57:07.973Z,969.76
2016-10-27T05:58:07.563Z,969.76
2016-10-27T05:59:08.221Z,969.77
2016-10-27T06:00:07.823Z,969.83
2016-10-27T06:01:07.403Z,969.83
2016-10-27T06:02:08.023Z,969.86
2016-10-27T06:03:07.692Z,969.83
2016-10-27T06:04:07.217Z,969.82
2016-10-27T06:05:07.983Z,969.88
2016-10-27T06:06:07.654Z,969.87
2016-10-27T06:07:08.375Z,969.90
2016-10-27T06:08:08.133Z,969.91
2016-10-27T06:09:07.647Z,969.94
2016-10-27T06:10:08.356Z,969.95
2016-10-27T06:11:08.073Z,969.94
2016-10-27T06:12:07.704Z,969.89
2016-10-27T06:13:08.386Z,969.96
2016-10-27T06:14:08.015Z,969.95
2016-10-27T06:15:07.602Z,969.94
2016-10-27T06:16:08.288Z,969.97
2016-10-27T06:17:07.933Z,970.03
2016-10-27T06:18:07.428Z,970.00
2016-10-27T06:19:08.207Z,970.01
2016-10-27T06:20:07.929Z,970.05
2016-10-27T06:21:07.534Z,970.08
2016-10-27T06:22:08.166Z,970.02
2016-10-27T06:23:08.685Z,970.13
2016-10-27T06:24:08.397Z,970.09
2016-10-27T06:25:20.668Z,970.23
2016-10-27T06:26:08.273Z,970.12
2016-10-27T06:27:08.042Z,970.11
2016-10-27T06:28:08.053Z,970.10
2016-10-27T06:29:07.727Z,970.15
2016-10-27T06:30:07.509Z,970.18
2016-10-27T06:31:08.168Z,970.16
2016-10-27T06:32:07.255Z,970.15
2016-10-27T06:33:07.613Z,970.15
2016-10-27T06:34:22.067Z,970.17
2016-10-27T06:35:08.300Z,970.17
2016-10-27T06:36:07.990Z,970.20
2016-10-27T06:37:07.659Z,970.25
2016-10-27T06:38:08.463Z,970.22
2016-10-27T06:39:08.038Z,970.21
2016-10-27T06:40:07.770Z,970.23
2016-10-27T06:41:07.397Z,970.20
2016-10-27T06:42:09.512Z,970.24
2016-10-27T06:43:08.324Z,970.25
2016-10-27T06:44:07.980Z,970.24
2016-10-27T06:45:07.541Z,970.23
2016-10-27T06:46:08.408Z,970.26
2016-10-27T06:47:08.042Z,970.25
2016-10-27T06:48:07.899Z,970.25
2016-10-27T06:49:07.551Z,970.25
2016-10-27T06:50:08.889Z,970.23
2016-10-27T06:51:07.466Z,970.23
2016-10-27T06:52:08.109Z,970.23
2016-10-27T06:53:07.609Z,970.25
2016-10-27T06:54:08.454Z,970.22
2016-10-27T06:55:09.005Z,970.22
2016-10-27T06:56:07.608Z,970.25
2016-10-27T06:57:25.677Z,970.23
2016-10-27T06:58:07.907Z,970.23
2016-10-27T06:59:07.604Z,970.22
2016-10-27T07:00:08.205Z,970.23
2016-10-27T07:01:07.874Z,970.26
2016-10-27T07:02:07.572Z,970.27
2016-10-27T07:03:08.218Z,970.31
2016-10-27T07:04:07.849Z,970.32
2016-10-27T07:05:08.363Z,970.33
2016-10-27T07:06:08.587Z,970.32
2016-10-27T07:07:07.253Z,970.30
2016-10-27T07:08:07.921Z,970.35
2016-10-27T07:09:07.521Z,970.36
2016-10-27T07:10:16.678Z,970.34
2016-10-27T07:11:08.315Z,970.37
2016-10-27T07:12:07.898Z,970.39
2016-10-27T07:13:07.432Z,970.41
2016-10-27T07:14:08.043Z,970.39
2016-10-27T07:15:07.542Z,970.42
2016-10-27T07:16:08.206Z,970.43
2016-10-27T07:17:07.912Z,970.46
2016-10-27T07:18:08.072Z,970.44
2016-10-27T07:19:07.744Z,970.45
2016-10-27T07:20:08.360Z,970.48
2016-10-27T07:21:07.933Z,970.51
2016-10-27T07:22:07.542Z,970.56
2016-10-27T07:23:08.214Z,970.57
2016-10-27T07:24:07.737Z,970.53
2016-10-27T07:25:08.386Z,970.55
2016-10-27T07:26:07.861Z,970.55
2016-10-27T07:27:07.388Z,970.58
2016-10-27T07:28:07.939Z,970.56
2016-10-27T07:29:07.654Z,970.56
2016-10-27T07:30:08.164Z,970.62
2016-10-27T07:31:07.698Z,970.60
2016-10-27T07:32:08.298Z,970.64
2016-10-27T07:33:07.864Z,970.63
2016-10-27T07:34:07.595Z,970.63
2016-10-27T07:35:08.182Z,970.62
2016-10-27T07:36:07.876Z,970.68
2016-10-27T07:37:07.374Z,970.68
2016-10-27T07:38:08.208Z,970.65
2016-10-27T07:39:07.848Z,970.67
2016-10-27T07:40:07.694Z,970.67
2016-10-27T07:41:08.335Z,970.63
2016-10-27T07:42:08.095Z,970.60
2016-10-27T07:43:08.040Z,970.64
2016-10-27T07:44:07.705Z,970.65
2016-10-27T07:45:08.435Z,970.68
2016-10-27T07:46:08.181Z,970.70
2016-10-27T07:47:07.839Z,970.67
2016-10-27T07:48:07.759Z,970.71
2016-10-27T07:49:07.439Z,970.70
2016-10-27T07:50:10.123Z,970.74
2016-10-27T07:51:07.714Z,970.76
2016-10-27T07:52:08.364Z,970.74
2016-10-27T07:53:07.816Z,970.76
2016-10-27T07:54:07.764Z,970.78
2016-10-27T07:55:07.415Z,970.80
2016-10-27T07:56:15.251Z,970.78
2016-10-27T07:57:07.449Z,970.80
2016-10-27T07:58:08.692Z,970.81
2016-10-27T07:59:08.258Z,970.82
2016-10-27T08:00:07.784Z,970.78
2016-10-27T08:01:07.418Z,970.84
2016-10-27T08:02:07.948Z,970.84
2016-10-27T08:03:07.459Z,970.86
2016-10-27T08:04:07.966Z,970.87
2016-10-27T08:05:07.999Z,970.92
2016-10-27T08:06:07.776Z,970.92
2016-10-27T08:07:07.353Z,970.96
2016-10-27T08:08:08.270Z,970.95
2016-10-27T08:09:08.010Z,970.95
2016-10-27T08:10:07.694Z,970.94
2016-10-27T08:11:08.893Z,970.95
2016-10-27T08:12:07.544Z,970.94
2016-10-27T08:13:08.187Z,970.94
2016-10-27T08:14:07.726Z,970.97
2016-10-27T08:15:08.220Z,970.98
2016-10-27T08:16:07.515Z,970.96
2016-10-27T08:17:08.173Z,971.03
2016-10-27T08:18:07.781Z,971.00
2016-10-27T08:19:07.356Z,971.05
2016-10-27T08:20:07.994Z,971.10
2016-10-27T08:21:07.453Z,971.10
2016-10-27T08:22:07.993Z,971.13
2016-10-27T08:23:07.570Z,971.07
2016-10-27T08:24:08.811Z,971.07
2016-10-27T08:25:07.449Z,971.09
2016-10-27T08:26:08.004Z,971.06
2016-10-27T08:27:07.855Z,971.07
2016-10-27T08:28:07.777Z,971.07
2016-10-27T08:29:07.662Z,971.04
2016-10-27T08:30:08.320Z,971.07
2016-10-27T08:31:07.965Z,971.11
2016-10-27T08:32:08.148Z,971.06
2016-10-27T08:33:07.792Z,971.12
2016-10-27T08:34:07.286Z,971.07
2016-10-27T08:35:07.803Z,971.12
2016-10-27T08:36:07.428Z,971.15
2016-10-27T08:37:07.891Z,971.19
2016-10-27T08:38:07.845Z,971.18
2016-10-27T08:39:07.408Z,971.23
2016-10-27T08:40:07.978Z,971.21
2016-10-27T08:41:08.439Z,971.25
2016-10-27T08:42:08.180Z,971.23
2016-10-27T08:43:07.747Z,971.25
2016-10-27T08:44:08.340Z,971.27
2016-10-27T08:45:07.864Z,971.28
2016-10-27T08:46:07.359Z,971.31
2016-10-27T08:47:08.040Z,971.28
2016-10-27T08:48:07.543Z,971.30
2016-10-27T08:49:07.753Z,971.32
2016-10-27T08:50:07.379Z,971.36
2016-10-27T08:51:07.876Z,971.33
2016-10-27T08:52:07.461Z,971.40
2016-10-27T08:53:08.239Z,971.36
2016-10-27T08:54:07.989Z,971.37
2016-10-27T08:55:07.615Z,971.40
2016-10-27T08:56:08.305Z,971.39
2016-10-27T08:57:07.613Z,971.44
2016-10-27T08:58:08.276Z,971.40
2016-10-27T08:59:07.845Z,971.41
2016-10-27T09:00:08.103Z,971.41
2016-10-27T09:01:07.677Z,971.42
2016-10-27T09:02:08.508Z,971.35
2016-10-27T09:03:08.114Z,971.38
2016-10-27T09:04:07.778Z,971.38
2016-10-27T09:05:07.366Z,971.38
2016-10-27T09:06:08.020Z,971.39
2016-10-27T09:07:07.707Z,971.40
2016-10-27T09:08:08.595Z,971.44
2016-10-27T09:09:08.369Z,971.42
2016-10-27T09:10:07.868Z,971.45
2016-10-27T09:11:07.643Z,971.47
2016-10-27T09:12:08.358Z,971.48
2016-10-27T09:13:08.045Z,971.50
2016-10-27T09:14:07.716Z,971.47
2016-10-27T09:15:07.435Z,971.48
2016-10-27T09:16:08.170Z,971.47
2016-10-27T09:17:07.898Z,971.51
2016-10-27T09:18:07.552Z,971.50
2016-10-27T09:19:08.444Z,971.51
2016-10-27T09:20:08.170Z,971.54
2016-10-27T09:21:07.741Z,971.54
2016-10-27T09:22:08.549Z,971.54
2016-10-27T09:23:08.144Z,971.59
2016-10-27T09:24:07.791Z,971.61
2016-10-27T09:25:07.430Z,971.61
2016-10-27T09:26:08.154Z,971.62
2016-10-27T09:27:07.767Z,971.64
2016-10-27T09:28:07.453Z,971.68
2016-10-27T09:29:07.963Z,971.68
2016-10-27T09:30:07.779Z,971.67
2016-10-27T09:31:07.383Z,971.70
2016-10-27T09:32:08.187Z,971.67
2016-10-27T09:33:07.852Z,971.70
2016-10-27T09:34:07.384Z,971.67
2016-10-27T09:35:08.026Z,971.69
2016-10-27T09:36:07.626Z,971.73
2016-10-27T09:37:08.394Z,971.71
2016-10-27T09:38:08.108Z,971.69
2016-10-27T09:39:07.817Z,971.66
2016-10-27T09:40:07.507Z,971.69
2016-10-27T09:41:08.377Z,971.66
2016-10-27T09:42:07.985Z,971.66
2016-10-27T09:43:07.629Z,971.64
2016-10-27T09:44:08.401Z,971.60
2016-10-27T09:45:08.288Z,971.62
2016-10-27T09:46:07.920Z,971.66
2016-10-27T09:47:07.816Z,971.68
2016-10-27T09:48:08.369Z,971.68
2016-10-27T09:49:08.021Z,971.68
2016-10-27T09:50:07.779Z,971.70
2016-10-27T09:51:12.949Z,971.67
2016-10-27T09:52:07.837Z,971.68
2016-10-27T09:53:07.386Z,971.71
2016-10-27T09:54:08.109Z,971.71
2016-10-27T09:55:07.647Z,971.69
2016-10-27T09:56:08.253Z,971.74
2016-10-27T09:57:07.933Z,971.71
2016-10-27T09:58:07.576Z,971.71
2016-10-27T09:59:08.219Z,971.74
2016-10-27T10:00:07.867Z,971.75
2016-10-27T10:01:07.584Z,971.75
2016-10-27T10:02:08.298Z,971.74
2016-10-27T10:03:08.105Z,971.74
2016-10-27T10:04:07.867Z,971.76
2016-10-27T10:05:07.565Z,971.75
2016-10-27T10:06:08.238Z,971.81
2016-10-27T10:07:07.903Z,971.79
2016-10-27T10:08:08.404Z,971.83
2016-10-27T10:09:08.009Z,971.85
2016-10-27T10:10:07.683Z,971.80
2016-10-27T10:11:08.298Z,971.83
2016-10-27T10:12:07.995Z,971.81
2016-10-27T10:13:07.562Z,971.81
2016-10-27T10:14:08.053Z,971.83
2016-10-27T10:15:08.306Z,971.81
2016-10-27T10:16:07.814Z,971.76
2016-10-27T10:17:07.475Z,971.76
2016-10-27T10:18:08.062Z,971.79
2016-10-27T10:19:07.595Z,971.78
2016-10-27T10:20:08.262Z,971.77
2016-10-27T10:21:07.816Z,971.72
2016-10-27T10:22:07.324Z,971.73
2016-10-27T10:23:07.934Z,971.76
2016-10-27T10:24:07.651Z,971.73
2016-10-27T10:25:08.302Z,971.68
2016-10-27T10:26:07.795Z,971.66
2016-10-27T10:27:07.334Z,971.72
2016-10-27T10:28:07.872Z,971.69
2016-10-27T10:29:07.409Z,971.71
2016-10-27T10:30:08.022Z,971.69
2016-10-27T10:31:07.638Z,971.67
2016-10-27T10:32:08.365Z,971.66
2016-10-27T10:33:07.932Z,971.68
2016-10-27T10:34:07.544Z,971.64
2016-10-27T10:35:08.221Z,971.61
2016-10-27T10:36:07.863Z,971.67
2016-10-27T10:37:07.427Z,971.69
2016-10-27T10:38:08.344Z,971.64
2016-10-27T10:39:07.997Z,971.65
2016-10-27T10:40:07.600Z,971.62
2016-10-27T10:41:08.128Z,971.63
2016-10-27T10:42:07.565Z,971.61
2016-10-27T10:43:08.261Z,971.60
2016-10-27T10:44:07.845Z,971.62
2016-10-27T10:45:07.354Z,971.58
2016-10-27T10:46:07.430Z,971.57
2016-10-27T10:47:08.104Z,971.60
2016-10-27T10:48:19.853Z,971.61
2016-10-27T10:49:07.615Z,971.56
2016-10-27T10:50:08.241Z,971.54
2016-10-27T10:51:07.921Z,971.50
2016-10-27T10:52:07.600Z,971.52
2016-10-27T10:53:08.227Z,971.52
2016-10-27T10:54:07.887Z,971.50
2016-10-27T10:55:12.997Z,971.49
2016-10-27T10:56:07.878Z,971.48
2016-10-27T10:57:07.523Z,971.47
2016-10-27T10:58:08.054Z,971.47
2016-10-27T10:59:07.617Z,971.49
2016-10-27T11:00:08.259Z,971.49
2016-10-27T11:01:08.025Z,971.48
2016-10-27T11:02:07.653Z,971.53
2016-10-27T11:03:08.253Z,971.55
2016-10-27T11:04:07.801Z,971.53
2016-10-27T11:05:07.441Z,971.56
2016-10-27T11:06:07.954Z,971.54
2016-10-27T11:07:07.589Z,971.54
2016-10-27T11:08:08.319Z,971.51
2016-10-27T11:09:07.971Z,971.50
2016-10-27T11:10:07.676Z,971.51
2016-10-27T11:11:08.353Z,971.48
2016-10-27T11:12:08.034Z,971.50
2016-10-27T11:13:07.745Z,971.49
2016-10-27T11:14:07.413Z,971.51
2016-10-27T11:15:07.925Z,971.54
2016-10-27T11:16:07.480Z,971.51
2016-10-27T11:17:08.364Z,971.49
2016-10-27T11:18:07.974Z,971.51
2016-10-27T11:19:07.458Z,971.46
2016-10-27T11:20:08.056Z,971.41
2016-10-27T11:21:07.714Z,971.44
2016-10-27T11:22:08.260Z,971.48
2016-10-27T11:23:07.746Z,971.44
2016-10-27T11:24:08.491Z,971.47
2016-10-27T11:25:08.455Z,971.48
2016-10-27T11:26:08.086Z,971.42
2016-10-27T11:27:18.145Z,971.46
2016-10-27T11:28:08.315Z,971.49
2016-10-27T11:29:07.945Z,971.48
2016-10-27T11:30:07.533Z,971.54
2016-10-27T11:31:08.392Z,971.51
2016-10-27T11:32:08.031Z,971.57
2016-10-27T11:33:07.740Z,971.60
2016-10-27T11:34:07.451Z,971.56
2016-10-27T11:35:07.967Z,971.55
2016-10-27T11:36:07.535Z,971.57
2016-10-27T11:37:08.205Z,971.49
2016-10-27T11:38:07.729Z,971.53
2016-10-27T11:39:08.327Z,971.55
2016-10-27T11:40:07.897Z,971.48
2016-10-27T11:41:07.556Z,971.56
2016-10-27T11:42:08.177Z,971.50
2016-10-27T11:43:07.942Z,971.46
2016-10-27T11:44:08.014Z,971.46
2016-10-27T11:45:07.831Z,971.45
2016-10-27T11:46:07.660Z,971.40
2016-10-27T11:47:08.142Z,971.43
2016-10-27T11:48:08.331Z,971.44
2016-10-27T11:49:08.099Z,971.43
2016-10-27T11:50:07.760Z,971.43
2016-10-27T11:51:07.404Z,971.41
2016-10-27T11:52:08.061Z,971.45
2016-10-27T11:53:07.830Z,971.39
2016-10-27T11:54:07.394Z,971.39
2016-10-27T11:55:07.911Z,971.43
2016-10-27T11:56:07.529Z,971.42
2016-10-27T11:57:08.109Z,971.42
2016-10-27T11:58:16.160Z,971.42
2016-10-27T11:59:07.800Z,971.45
2016-10-27T12:00:07.351Z,971.36
2016-10-27T12:01:07.870Z,971.41
2016-10-27T12:02:07.597Z,971.42
2016-10-27T12:03:14.781Z,971.44
2016-10-27T12:04:07.982Z,971.41
2016-10-27T12:05:07.788Z,971.45
2016-10-27T12:06:07.343Z,971.41
2016-10-27T12:07:07.817Z,971.39
2016-10-27T12:08:07.346Z,971.36
2016-10-27T12:09:07.828Z,971.36
2016-10-27T12:10:07.512Z,971.33
2016-10-27T12:11:08.118Z,971.44
2016-10-27T12:12:07.698Z,971.36
2016-10-27T12:13:08.385Z,971.35
2016-10-27T12:14:08.009Z,971.39
2016-10-27T12:15:07.786Z,971.34
2016-10-27T12:16:07.394Z,971.38
2016-10-27T12:17:08.137Z,971.37
2016-10-27T12:18:07.914Z,971.36
2016-10-27T12:19:08.078Z,971.34
2016-10-27T12:20:07.603Z,971.29
2016-10-27T12:21:08.101Z,971.32
2016-10-27T12:22:07.693Z,971.30
2016-10-27T12:23:08.336Z,971.25
2016-10-27T12:24:08.971Z,971.25
2016-10-27T12:25:09.108Z,971.29
2016-10-27T12:26:07.693Z,971.23
2016-10-27T12:27:08.230Z,971.27
2016-10-27T12:28:08.033Z,971.22
2016-10-27T12:29:07.717Z,971.24